sensor_id;sensor_type;location;lat;lon;timestamp;P1;durP1;ratioP1;P2;durP2;ratioP2
35602;SDS011;21725;50.836;4.368;2022-12-16T00:02:00;39.45;;;22.35;;
35602;SDS011;21725;50.836;4.368;2022-12-16T00:05:37;31.67;;;19.98;;
35602;SDS011;21725;50.836;4.368;2022-12-16T00:09:08;38.22;;;20.83;;
35602;SDS011;21725;50.836;4.368;2022-12-16T00:32:22;46.30;;;22.45;;
35602;SDS011;21725;50.836;4.368;2022-12-16T00:35:25;28.30;;;18.25;;
35602;SDS011;21725;50.836;4.368;2022-12-16T00:38:29;35.22;;;17.73;;
35602;SDS011;21725;50.836;4.368;2022-12-16T00:41:35;30.55;;;20.30;;
35602;SDS011;21725;50.836;4.368;2022-12-16T00:45:05;29.27;;;17.15;;
35602;SDS011;21725;50.836;4.368;2022-12-16T00:48:09;28.05;;;18.13;;
35602;SDS011;21725;50.836;4.368;2022-12-16T00:51:21;29.95;;;17.45;;
35602;SDS011;21725;50.836;4.368;2022-12-16T00:54:42;31.63;;;18.33;;
35602;SDS011;21725;50.836;4.368;2022-12-16T00:57:48;38.25;;;21.83;;
35602;SDS011;21725;50.836;4.368;2022-12-16T01:00:54;36.58;;;22.30;;
35602;SDS011;21725;50.836;4.368;2022-12-16T01:07:46;36.53;;;24.00;;
35602;SDS011;21725;50.836;4.368;2022-12-16T01:11:01;36.63;;;24.67;;
35602;SDS011;21725;50.836;4.368;2022-12-16T01:14:04;34.22;;;22.48;;
35602;SDS011;21725;50.836;4.368;2022-12-16T01:17:10;35.38;;;22.15;;
35602;SDS011;21725;50.836;4.368;2022-12-16T01:20:38;42.03;;;22.73;;
35602;SDS011;21725;50.836;4.368;2022-12-16T01:23:52;35.95;;;19.73;;
35602;SDS011;21725;50.836;4.368;2022-12-16T01:27:06;43.45;;;19.80;;
35602;SDS011;21725;50.836;4.368;2022-12-16T01:30:19;35.13;;;20.77;;
35602;SDS011;21725;50.836;4.368;2022-12-16T01:33:33;35.00;;;22.13;;
35602;SDS011;21725;50.836;4.368;2022-12-16T01:36:43;39.90;;;21.80;;
35602;SDS011;21725;50.836;4.368;2022-12-16T01:39:56;36.83;;;22.00;;
35602;SDS011;21725;50.836;4.368;2022-12-16T01:43:07;34.38;;;21.13;;
35602;SDS011;21725;50.836;4.368;2022-12-16T01:49:41;42.47;;;19.25;;
35602;SDS011;21725;50.836;4.368;2022-12-16T01:55:55;36.22;;;19.33;;
35602;SDS011;21725;50.836;4.368;2022-12-16T01:59:03;29.85;;;19.67;;
35602;SDS011;21725;50.836;4.368;2022-12-16T02:02:22;33.35;;;20.20;;
35602;SDS011;21725;50.836;4.368;2022-12-16T02:05:43;36.17;;;19.63;;
35602;SDS011;21725;50.836;4.368;2022-12-16T02:08:47;35.25;;;19.73;;
35602;SDS011;21725;50.836;4.368;2022-12-16T02:26:00;43.85;;;22.08;;
35602;SDS011;21725;50.836;4.368;2022-12-16T02:33:37;36.42;;;19.08;;
35602;SDS011;21725;50.836;4.368;2022-12-16T02:40:40;33.47;;;20.10;;
35602;SDS011;21725;50.836;4.368;2022-12-16T02:44:16;30.77;;;20.15;;
35602;SDS011;21725;50.836;4.368;2022-12-16T02:47:26;34.00;;;19.17;;
35602;SDS011;21725;50.836;4.368;2022-12-16T02:50:35;38.28;;;20.67;;
35602;SDS011;21725;50.836;4.368;2022-12-16T02:54:10;33.72;;;19.67;;
35602;SDS011;21725;50.836;4.368;2022-12-16T02:57:27;34.63;;;21.50;;
35602;SDS011;21725;50.836;4.368;2022-12-16T03:00:40;37.38;;;21.70;;
35602;SDS011;21725;50.836;4.368;2022-12-16T03:04:05;35.25;;;19.67;;
35602;SDS011;21725;50.836;4.368;2022-12-16T03:10:56;42.10;;;22.50;;
35602;SDS011;21725;50.836;4.368;2022-12-16T03:14:17;42.78;;;23.65;;
35602;SDS011;21725;50.836;4.368;2022-12-16T03:17:22;35.53;;;22.42;;
35602;SDS011;21725;50.836;4.368;2022-12-16T03:24:24;44.22;;;21.95;;
35602;SDS011;21725;50.836;4.368;2022-12-16T03:30:52;36.30;;;20.13;;
35602;SDS011;21725;50.836;4.368;2022-12-16T03:34:41;36.70;;;21.25;;
35602;SDS011;21725;50.836;4.368;2022-12-16T03:37:49;36.25;;;21.48;;
35602;SDS011;21725;50.836;4.368;2022-12-16T03:41:13;36.15;;;21.98;;
35602;SDS011;21725;50.836;4.368;2022-12-16T03:44:20;35.97;;;21.27;;
35602;SDS011;21725;50.836;4.368;2022-12-16T03:54:43;33.03;;;20.92;;
35602;SDS011;21725;50.836;4.368;2022-12-16T03:57:56;34.80;;;22.60;;
35602;SDS011;21725;50.836;4.368;2022-12-16T04:01:17;36.83;;;21.27;;
35602;SDS011;21725;50.836;4.368;2022-12-16T04:04:22;35.38;;;20.67;;
35602;SDS011;21725;50.836;4.368;2022-12-16T04:07:31;37.80;;;21.40;;
35602;SDS011;21725;50.836;4.368;2022-12-16T04:11:11;37.42;;;23.15;;
35602;SDS011;21725;50.836;4.368;2022-12-16T04:14:50;40.88;;;24.60;;
35602;SDS011;21725;50.836;4.368;2022-12-16T04:18:19;49.67;;;23.50;;
35602;SDS011;21725;50.836;4.368;2022-12-16T04:21:39;46.70;;;27.23;;
35602;SDS011;21725;50.836;4.368;2022-12-16T04:25:00;43.47;;;24.77;;
35602;SDS011;21725;50.836;4.368;2022-12-16T04:28:09;48.83;;;27.45;;
35602;SDS011;21725;50.836;4.368;2022-12-16T04:31:12;42.00;;;25.52;;
35602;SDS011;21725;50.836;4.368;2022-12-16T04:34:22;43.30;;;25.17;;
35602;SDS011;21725;50.836;4.368;2022-12-16T04:37:35;36.35;;;22.77;;
35602;SDS011;21725;50.836;4.368;2022-12-16T04:40:56;35.70;;;23.35;;
35602;SDS011;21725;50.836;4.368;2022-12-16T04:44:33;43.90;;;25.00;;
35602;SDS011;21725;50.836;4.368;2022-12-16T04:48:01;46.58;;;28.10;;
35602;SDS011;21725;50.836;4.368;2022-12-16T04:51:26;42.22;;;25.85;;
35602;SDS011;21725;50.836;4.368;2022-12-16T04:54:45;47.92;;;26.60;;
35602;SDS011;21725;50.836;4.368;2022-12-16T04:58:04;52.00;;;28.75;;
35602;SDS011;21725;50.836;4.368;2022-12-16T05:01:41;41.70;;;24.83;;
35602;SDS011;21725;50.836;4.368;2022-12-16T05:05:08;50.28;;;27.77;;
35602;SDS011;21725;50.836;4.368;2022-12-16T05:08:35;50.03;;;26.27;;
35602;SDS011;21725;50.836;4.368;2022-12-16T05:15:16;46.75;;;27.17;;
35602;SDS011;21725;50.836;4.368;2022-12-16T05:18:37;39.42;;;22.48;;
35602;SDS011;21725;50.836;4.368;2022-12-16T05:21:59;42.78;;;27.67;;
35602;SDS011;21725;50.836;4.368;2022-12-16T05:25:36;45.03;;;26.60;;
35602;SDS011;21725;50.836;4.368;2022-12-16T05:29:04;50.30;;;30.52;;
35602;SDS011;21725;50.836;4.368;2022-12-16T05:32:32;54.80;;;29.65;;
35602;SDS011;21725;50.836;4.368;2022-12-16T05:35:54;47.80;;;27.40;;
35602;SDS011;21725;50.836;4.368;2022-12-16T05:39:15;39.60;;;17.30;;
35602;SDS011;21725;50.836;4.368;2022-12-16T05:42:35;40.65;;;22.73;;
35602;SDS011;21725;50.836;4.368;2022-12-16T05:46:16;46.70;;;27.73;;
35602;SDS011;21725;50.836;4.368;2022-12-16T05:49:53;39.65;;;22.52;;
35602;SDS011;21725;50.836;4.368;2022-12-16T05:53:15;42.20;;;24.05;;
35602;SDS011;21725;50.836;4.368;2022-12-16T05:56:38;42.58;;;24.48;;
35602;SDS011;21725;50.836;4.368;2022-12-16T06:00:02;42.55;;;24.55;;
35602;SDS011;21725;50.836;4.368;2022-12-16T06:03:31;52.15;;;26.48;;
35602;SDS011;21725;50.836;4.368;2022-12-16T06:06:53;41.65;;;25.35;;
35602;SDS011;21725;50.836;4.368;2022-12-16T06:10:17;44.20;;;27.30;;
35602;SDS011;21725;50.836;4.368;2022-12-16T06:13:54;43.70;;;25.15;;
35602;SDS011;21725;50.836;4.368;2022-12-16T06:17:20;49.55;;;26.75;;
35602;SDS011;21725;50.836;4.368;2022-12-16T06:21:01;42.78;;;25.05;;
35602;SDS011;21725;50.836;4.368;2022-12-16T06:24:25;41.28;;;25.92;;
35602;SDS011;21725;50.836;4.368;2022-12-16T06:27:49;38.22;;;23.88;;
35602;SDS011;21725;50.836;4.368;2022-12-16T06:31:37;41.00;;;22.55;;
35602;SDS011;21725;50.836;4.368;2022-12-16T06:35:34;33.75;;;21.75;;
35602;SDS011;21725;50.836;4.368;2022-12-16T06:38:54;33.33;;;21.45;;
35602;SDS011;21725;50.836;4.368;2022-12-16T06:42:20;38.95;;;18.40;;
35602;SDS011;21725;50.836;4.368;2022-12-16T06:45:42;37.13;;;17.27;;
35602;SDS011;21725;50.836;4.368;2022-12-16T06:49:04;33.05;;;20.42;;
35602;SDS011;21725;50.836;4.368;2022-12-16T06:52:26;29.50;;;19.10;;
35602;SDS011;21725;50.836;4.368;2022-12-16T06:55:45;28.58;;;17.25;;
35602;SDS011;21725;50.836;4.368;2022-12-16T06:59:24;36.92;;;20.02;;
35602;SDS011;21725;50.836;4.368;2022-12-16T07:02:51;26.70;;;15.23;;
35602;SDS011;21725;50.836;4.368;2022-12-16T07:06:10;26.75;;;15.15;;
35602;SDS011;21725;50.836;4.368;2022-12-16T07:10:07;32.90;;;16.38;;
35602;SDS011;21725;50.836;4.368;2022-12-16T07:13:30;23.02;;;15.15;;
35602;SDS011;21725;50.836;4.368;2022-12-16T07:16:51;24.95;;;16.08;;
35602;SDS011;21725;50.836;4.368;2022-12-16T07:20:18;20.98;;;11.80;;
35602;SDS011;21725;50.836;4.368;2022-12-16T07:23:42;25.50;;;16.13;;
35602;SDS011;21725;50.836;4.368;2022-12-16T07:27:13;33.10;;;18.83;;
35602;SDS011;21725;50.836;4.368;2022-12-16T07:30:39;27.02;;;17.65;;
35602;SDS011;21725;50.836;4.368;2022-12-16T07:34:03;28.95;;;17.30;;
35602;SDS011;21725;50.836;4.368;2022-12-16T07:37:22;21.10;;;13.95;;
35602;SDS011;21725;50.836;4.368;2022-12-16T07:40:59;32.80;;;18.70;;
35602;SDS011;21725;50.836;4.368;2022-12-16T07:44:32;29.17;;;19.27;;
35602;SDS011;21725;50.836;4.368;2022-12-16T07:47:51;20.48;;;12.75;;
35602;SDS011;21725;50.836;4.368;2022-12-16T07:51:28;28.17;;;16.40;;
35602;SDS011;21725;50.836;4.368;2022-12-16T07:54:47;25.38;;;16.33;;
35602;SDS011;21725;50.836;4.368;2022-12-16T07:58:07;30.10;;;18.70;;
35602;SDS011;21725;50.836;4.368;2022-12-16T08:01:32;28.77;;;17.98;;
35602;SDS011;21725;50.836;4.368;2022-12-16T08:08:34;26.38;;;18.02;;
35602;SDS011;21725;50.836;4.368;2022-12-16T08:12:06;28.17;;;19.33;;
35602;SDS011;21725;50.836;4.368;2022-12-16T08:15:28;23.30;;;15.57;;
35602;SDS011;21725;50.836;4.368;2022-12-16T08:18:47;29.00;;;19.30;;
35602;SDS011;21725;50.836;4.368;2022-12-16T08:22:17;39.25;;;20.75;;
35602;SDS011;21725;50.836;4.368;2022-12-16T08:25:43;31.17;;;19.90;;
35602;SDS011;21725;50.836;4.368;2022-12-16T08:29:05;26.20;;;17.33;;
35602;SDS011;21725;50.836;4.368;2022-12-16T08:32:25;26.90;;;16.45;;
35602;SDS011;21725;50.836;4.368;2022-12-16T08:35:46;22.30;;;13.82;;
35602;SDS011;21725;50.836;4.368;2022-12-16T08:39:05;24.77;;;15.82;;
35602;SDS011;21725;50.836;4.368;2022-12-16T08:42:27;23.63;;;15.75;;
35602;SDS011;21725;50.836;4.368;2022-12-16T08:45:47;23.50;;;16.55;;
35602;SDS011;21725;50.836;4.368;2022-12-16T08:49:11;23.00;;;14.27;;
35602;SDS011;21725;50.836;4.368;2022-12-16T08:52:35;24.77;;;13.60;;
35602;SDS011;21725;50.836;4.368;2022-12-16T08:56:03;24.80;;;16.23;;
35602;SDS011;21725;50.836;4.368;2022-12-16T08:59:22;22.10;;;15.20;;
35602;SDS011;21725;50.836;4.368;2022-12-16T09:02:41;31.05;;;18.35;;
35602;SDS011;21725;50.836;4.368;2022-12-16T09:06:14;27.92;;;16.60;;
35602;SDS011;21725;50.836;4.368;2022-12-16T09:10:10;32.30;;;18.65;;
35602;SDS011;21725;50.836;4.368;2022-12-16T09:13:47;25.67;;;16.02;;
35602;SDS011;21725;50.836;4.368;2022-12-16T09:17:10;21.80;;;14.90;;
35602;SDS011;21725;50.836;4.368;2022-12-16T09:20:29;31.02;;;16.85;;
35602;SDS011;21725;50.836;4.368;2022-12-16T09:23:51;22.50;;;12.93;;
35602;SDS011;21725;50.836;4.368;2022-12-16T09:27:15;27.80;;;17.98;;
35602;SDS011;21725;50.836;4.368;2022-12-16T09:30:59;31.73;;;20.02;;
35602;SDS011;21725;50.836;4.368;2022-12-16T09:34:41;32.20;;;20.00;;
35602;SDS011;21725;50.836;4.368;2022-12-16T09:53:26;27.90;;;18.05;;
35602;SDS011;21725;50.836;4.368;2022-12-16T09:56:50;26.63;;;15.88;;
35602;SDS011;21725;50.836;4.368;2022-12-16T10:00:42;23.42;;;14.27;;
35602;SDS011;21725;50.836;4.368;2022-12-16T10:04:09;28.23;;;17.77;;
35602;SDS011;21725;50.836;4.368;2022-12-16T10:14:43;27.33;;;17.17;;
35602;SDS011;21725;50.836;4.368;2022-12-16T10:25:45;23.02;;;15.02;;
35602;SDS011;21725;50.836;4.368;2022-12-16T10:29:23;29.38;;;16.63;;
35602;SDS011;21725;50.836;4.368;2022-12-16T10:32:46;28.23;;;16.02;;
35602;SDS011;21725;50.836;4.368;2022-12-16T10:36:16;32.08;;;18.23;;
35602;SDS011;21725;50.836;4.368;2022-12-16T10:39:46;23.20;;;13.15;;
35602;SDS011;21725;50.836;4.368;2022-12-16T10:47:03;32.47;;;19.55;;
35602;SDS011;21725;50.836;4.368;2022-12-16T10:50:32;22.73;;;15.30;;
35602;SDS011;21725;50.836;4.368;2022-12-16T11:01:35;27.25;;;16.67;;
35602;SDS011;21725;50.836;4.368;2022-12-16T11:12:58;28.17;;;15.65;;
35602;SDS011;21725;50.836;4.368;2022-12-16T11:16:34;25.17;;;15.63;;
35602;SDS011;21725;50.836;4.368;2022-12-16T11:20:04;22.58;;;14.77;;
35602;SDS011;21725;50.836;4.368;2022-12-16T11:24:32;24.80;;;15.50;;
35602;SDS011;21725;50.836;4.368;2022-12-16T11:31:36;27.45;;;15.00;;
35602;SDS011;21725;50.836;4.368;2022-12-16T11:34:58;24.92;;;16.15;;
35602;SDS011;21725;50.836;4.368;2022-12-16T11:38:30;30.40;;;18.40;;
35602;SDS011;21725;50.836;4.368;2022-12-16T11:41:56;29.42;;;17.95;;
35602;SDS011;21725;50.836;4.368;2022-12-16T11:45:19;31.23;;;18.00;;
35602;SDS011;21725;50.836;4.368;2022-12-16T11:52:39;23.88;;;15.88;;
35602;SDS011;21725;50.836;4.368;2022-12-16T12:00:14;27.20;;;12.00;;
35602;SDS011;21725;50.836;4.368;2022-12-16T12:03:36;21.38;;;12.77;;
35602;SDS011;21725;50.836;4.368;2022-12-16T12:07:09;24.83;;;14.13;;
35602;SDS011;21725;50.836;4.368;2022-12-16T12:18:33;21.38;;;12.32;;
35602;SDS011;21725;50.836;4.368;2022-12-16T12:22:23;22.10;;;11.43;;
35602;SDS011;21725;50.836;4.368;2022-12-16T12:44:13;23.63;;;14.75;;
35602;SDS011;21725;50.836;4.368;2022-12-16T12:48:23;23.00;;;13.00;;
35602;SDS011;21725;50.836;4.368;2022-12-16T13:03:34;22.75;;;11.98;;
35602;SDS011;21725;50.836;4.368;2022-12-16T13:07:30;20.88;;;10.07;;
35602;SDS011;21725;50.836;4.368;2022-12-16T13:10:59;22.00;;;11.73;;
35602;SDS011;21725;50.836;4.368;2022-12-16T13:24:55;20.58;;;11.48;;
35602;SDS011;21725;50.836;4.368;2022-12-16T13:28:28;25.17;;;12.50;;
35602;SDS011;21725;50.836;4.368;2022-12-16T13:32:19;32.58;;;11.15;;
35602;SDS011;21725;50.836;4.368;2022-12-16T13:35:59;23.77;;;12.85;;
35602;SDS011;21725;50.836;4.368;2022-12-16T13:39:20;22.38;;;12.27;;
35602;SDS011;21725;50.836;4.368;2022-12-16T13:42:49;24.38;;;12.63;;
35602;SDS011;21725;50.836;4.368;2022-12-16T13:46:15;19.88;;;11.38;;
35602;SDS011;21725;50.836;4.368;2022-12-16T13:53:08;16.75;;;8.27;;
35602;SDS011;21725;50.836;4.368;2022-12-16T13:56:48;20.40;;;10.38;;
35602;SDS011;21725;50.836;4.368;2022-12-16T14:00:31;17.83;;;10.43;;
35602;SDS011;21725;50.836;4.368;2022-12-16T14:03:55;18.70;;;10.55;;
35602;SDS011;21725;50.836;4.368;2022-12-16T14:07:27;16.25;;;9.50;;
35602;SDS011;21725;50.836;4.368;2022-12-16T14:10:55;19.92;;;11.55;;
35602;SDS011;21725;50.836;4.368;2022-12-16T14:14:29;25.23;;;9.82;;
35602;SDS011;21725;50.836;4.368;2022-12-16T14:18:21;15.90;;;9.43;;
35602;SDS011;21725;50.836;4.368;2022-12-16T14:25:41;25.45;;;11.52;;
35602;SDS011;21725;50.836;4.368;2022-12-16T14:29:12;20.83;;;10.40;;
35602;SDS011;21725;50.836;4.368;2022-12-16T14:32:45;17.90;;;10.27;;
35602;SDS011;21725;50.836;4.368;2022-12-16T14:36:37;16.88;;;8.77;;
35602;SDS011;21725;50.836;4.368;2022-12-16T14:40:00;16.85;;;10.30;;
35602;SDS011;21725;50.836;4.368;2022-12-16T14:43:31;21.05;;;10.20;;
35602;SDS011;21725;50.836;4.368;2022-12-16T14:47:15;21.65;;;11.73;;
35602;SDS011;21725;50.836;4.368;2022-12-16T14:50:54;16.52;;;9.32;;
35602;SDS011;21725;50.836;4.368;2022-12-16T14:58:36;19.52;;;9.85;;
35602;SDS011;21725;50.836;4.368;2022-12-16T15:01:58;16.55;;;9.98;;
35602;SDS011;21725;50.836;4.368;2022-12-16T15:05:38;19.20;;;11.00;;
35602;SDS011;21725;50.836;4.368;2022-12-16T15:09:38;13.95;;;8.25;;
35602;SDS011;21725;50.836;4.368;2022-12-16T15:16:51;16.40;;;9.05;;
35602;SDS011;21725;50.836;4.368;2022-12-16T15:20:23;22.23;;;8.25;;
35602;SDS011;21725;50.836;4.368;2022-12-16T15:23:47;16.63;;;6.93;;
35602;SDS011;21725;50.836;4.368;2022-12-16T15:27:25;11.68;;;7.35;;
35602;SDS011;21725;50.836;4.368;2022-12-16T15:30:51;12.35;;;6.32;;
35602;SDS011;21725;50.836;4.368;2022-12-16T15:37:55;18.20;;;8.00;;
35602;SDS011;21725;50.836;4.368;2022-12-16T15:41:23;16.88;;;8.02;;
35602;SDS011;21725;50.836;4.368;2022-12-16T15:44:49;16.13;;;7.35;;
35602;SDS011;21725;50.836;4.368;2022-12-16T15:51:51;13.45;;;7.70;;
35602;SDS011;21725;50.836;4.368;2022-12-16T15:59:17;22.35;;;11.23;;
35602;SDS011;21725;50.836;4.368;2022-12-16T16:02:56;30.55;;;14.82;;
35602;SDS011;21725;50.836;4.368;2022-12-16T16:06:25;30.50;;;17.40;;
35602;SDS011;21725;50.836;4.368;2022-12-16T16:10:02;29.25;;;15.57;;
35602;SDS011;21725;50.836;4.368;2022-12-16T16:13:37;25.52;;;14.27;;
35602;SDS011;21725;50.836;4.368;2022-12-16T16:17:07;31.65;;;18.13;;
35602;SDS011;21725;50.836;4.368;2022-12-16T16:24:37;28.83;;;17.70;;
35602;SDS011;21725;50.836;4.368;2022-12-16T16:28:03;37.60;;;21.17;;
35602;SDS011;21725;50.836;4.368;2022-12-16T16:31:25;27.50;;;16.55;;
35602;SDS011;21725;50.836;4.368;2022-12-16T16:34:44;33.10;;;18.38;;
35602;SDS011;21725;50.836;4.368;2022-12-16T16:38:03;32.28;;;21.48;;
35602;SDS011;21725;50.836;4.368;2022-12-16T16:41:25;44.72;;;23.15;;
35602;SDS011;21725;50.836;4.368;2022-12-16T16:44:45;37.58;;;25.52;;
35602;SDS011;21725;50.836;4.368;2022-12-16T16:48:21;44.35;;;25.83;;
35602;SDS011;21725;50.836;4.368;2022-12-16T16:51:47;38.50;;;24.35;;
35602;SDS011;21725;50.836;4.368;2022-12-16T16:55:07;42.15;;;26.33;;
35602;SDS011;21725;50.836;4.368;2022-12-16T16:58:43;47.63;;;26.80;;
35602;SDS011;21725;50.836;4.368;2022-12-16T17:06:02;34.90;;;23.10;;
35602;SDS011;21725;50.836;4.368;2022-12-16T17:09:24;45.15;;;24.13;;
35602;SDS011;21725;50.836;4.368;2022-12-16T17:12:52;35.88;;;23.33;;
35602;SDS011;21725;50.836;4.368;2022-12-16T17:16:14;37.67;;;23.02;;
35602;SDS011;21725;50.836;4.368;2022-12-16T17:19:36;39.85;;;24.42;;
35602;SDS011;21725;50.836;4.368;2022-12-16T17:22:58;44.03;;;25.85;;
35602;SDS011;21725;50.836;4.368;2022-12-16T17:26:17;41.28;;;26.08;;
35602;SDS011;21725;50.836;4.368;2022-12-16T17:29:39;41.00;;;24.30;;
35602;SDS011;21725;50.836;4.368;2022-12-16T17:32:59;42.25;;;23.83;;
35602;SDS011;21725;50.836;4.368;2022-12-16T17:36:20;38.60;;;22.27;;
35602;SDS011;21725;50.836;4.368;2022-12-16T17:39:41;45.83;;;27.30;;
35602;SDS011;21725;50.836;4.368;2022-12-16T17:43:10;47.10;;;28.80;;
35602;SDS011;21725;50.836;4.368;2022-12-16T17:46:29;39.08;;;26.60;;
35602;SDS011;21725;50.836;4.368;2022-12-16T17:49:48;33.90;;;22.25;;
35602;SDS011;21725;50.836;4.368;2022-12-16T17:53:07;35.47;;;21.60;;
35602;SDS011;21725;50.836;4.368;2022-12-16T17:56:35;38.63;;;22.30;;
35602;SDS011;21725;50.836;4.368;2022-12-16T18:00:12;46.22;;;25.27;;
35602;SDS011;21725;50.836;4.368;2022-12-16T18:06:51;42.90;;;25.13;;
35602;SDS011;21725;50.836;4.368;2022-12-16T18:10:13;37.58;;;23.58;;
35602;SDS011;21725;50.836;4.368;2022-12-16T18:13:35;36.90;;;22.77;;
35602;SDS011;21725;50.836;4.368;2022-12-16T18:16:56;38.55;;;22.50;;
35602;SDS011;21725;50.836;4.368;2022-12-16T18:20:22;47.53;;;24.38;;
35602;SDS011;21725;50.836;4.368;2022-12-16T18:23:53;54.20;;;24.55;;
35602;SDS011;21725;50.836;4.368;2022-12-16T18:27:12;41.28;;;24.52;;
35602;SDS011;21725;50.836;4.368;2022-12-16T18:30:34;35.75;;;22.83;;
35602;SDS011;21725;50.836;4.368;2022-12-16T18:33:53;40.30;;;22.30;;
35602;SDS011;21725;50.836;4.368;2022-12-16T18:37:12;30.77;;;20.15;;
35602;SDS011;21725;50.836;4.368;2022-12-16T18:40:34;31.73;;;20.25;;
35602;SDS011;21725;50.836;4.368;2022-12-16T18:43:53;38.88;;;21.17;;
35602;SDS011;21725;50.836;4.368;2022-12-16T18:47:15;35.20;;;21.25;;
35602;SDS011;21725;50.836;4.368;2022-12-16T18:50:35;35.67;;;21.83;;
35602;SDS011;21725;50.836;4.368;2022-12-16T18:53:54;36.63;;;19.17;;
35602;SDS011;21725;50.836;4.368;2022-12-16T18:57:16;37.78;;;21.73;;
35602;SDS011;21725;50.836;4.368;2022-12-16T19:00:59;39.50;;;23.25;;
35602;SDS011;21725;50.836;4.368;2022-12-16T19:04:23;44.88;;;26.65;;
35602;SDS011;21725;50.836;4.368;2022-12-16T19:07:45;52.03;;;28.27;;
35602;SDS011;21725;50.836;4.368;2022-12-16T19:11:07;46.20;;;29.00;;
35602;SDS011;21725;50.836;4.368;2022-12-16T19:14:33;49.95;;;30.08;;
35602;SDS011;21725;50.836;4.368;2022-12-16T19:17:52;40.10;;;26.95;;
35602;SDS011;21725;50.836;4.368;2022-12-16T19:21:11;63.40;;;32.40;;
35602;SDS011;21725;50.836;4.368;2022-12-16T19:24:31;51.80;;;33.72;;
35602;SDS011;21725;50.836;4.368;2022-12-16T19:31:12;60.50;;;35.38;;
35602;SDS011;21725;50.836;4.368;2022-12-16T19:34:33;59.55;;;34.30;;
35602;SDS011;21725;50.836;4.368;2022-12-16T19:37:52;49.75;;;28.77;;
35602;SDS011;21725;50.836;4.368;2022-12-16T19:41:15;49.55;;;30.05;;
35602;SDS011;21725;50.836;4.368;2022-12-16T19:44:35;52.25;;;28.65;;
35602;SDS011;21725;50.836;4.368;2022-12-16T19:48:04;48.15;;;30.55;;
35602;SDS011;21725;50.836;4.368;2022-12-16T19:51:25;52.65;;;30.45;;
35602;SDS011;21725;50.836;4.368;2022-12-16T19:54:44;54.33;;;32.63;;
35602;SDS011;21725;50.836;4.368;2022-12-16T19:58:03;55.45;;;33.95;;
35602;SDS011;21725;50.836;4.368;2022-12-16T20:01:24;52.45;;;31.13;;
35602;SDS011;21725;50.836;4.368;2022-12-16T20:04:43;58.55;;;31.98;;
35602;SDS011;21725;50.836;4.368;2022-12-16T20:08:02;53.35;;;30.13;;
35602;SDS011;21725;50.836;4.368;2022-12-16T20:14:54;49.33;;;30.55;;
35602;SDS011;21725;50.836;4.368;2022-12-16T20:18:14;48.55;;;30.55;;
35602;SDS011;21725;50.836;4.368;2022-12-16T20:21:33;57.78;;;32.30;;
35602;SDS011;21725;50.836;4.368;2022-12-16T20:24:52;50.08;;;30.65;;
35602;SDS011;21725;50.836;4.368;2022-12-16T20:28:12;51.70;;;33.83;;
35602;SDS011;21725;50.836;4.368;2022-12-16T20:31:31;47.33;;;26.95;;
35602;SDS011;21725;50.836;4.368;2022-12-16T20:34:51;52.83;;;32.80;;
35602;SDS011;21725;50.836;4.368;2022-12-16T20:38:10;46.30;;;31.92;;
35602;SDS011;21725;50.836;4.368;2022-12-16T20:41:29;60.33;;;34.30;;
35602;SDS011;21725;50.836;4.368;2022-12-16T20:48:12;58.60;;;34.80;;
35602;SDS011;21725;50.836;4.368;2022-12-16T20:51:32;52.10;;;35.60;;
35602;SDS011;21725;50.836;4.368;2022-12-16T20:54:51;52.40;;;31.50;;
35602;SDS011;21725;50.836;4.368;2022-12-16T20:58:10;55.92;;;34.85;;
35602;SDS011;21725;50.836;4.368;2022-12-16T21:01:35;53.42;;;29.25;;
35602;SDS011;21725;50.836;4.368;2022-12-16T21:04:54;38.78;;;24.90;;
35602;SDS011;21725;50.836;4.368;2022-12-16T21:08:13;52.03;;;29.88;;
35602;SDS011;21725;50.836;4.368;2022-12-16T21:11:32;51.88;;;32.55;;
35602;SDS011;21725;50.836;4.368;2022-12-16T21:14:52;61.08;;;37.38;;
35602;SDS011;21725;50.836;4.368;2022-12-16T21:18:11;68.03;;;43.10;;
35602;SDS011;21725;50.836;4.368;2022-12-16T21:21:30;58.55;;;36.70;;
35602;SDS011;21725;50.836;4.368;2022-12-16T21:24:49;40.85;;;26.70;;
35602;SDS011;21725;50.836;4.368;2022-12-16T21:28:10;64.05;;;34.92;;
35602;SDS011;21725;50.836;4.368;2022-12-16T21:31:30;60.47;;;33.60;;
35602;SDS011;21725;50.836;4.368;2022-12-16T21:35:05;56.35;;;33.53;;
35602;SDS011;21725;50.836;4.368;2022-12-16T21:38:25;55.42;;;31.33;;
35602;SDS011;21725;50.836;4.368;2022-12-16T21:41:44;53.13;;;31.02;;
35602;SDS011;21725;50.836;4.368;2022-12-16T21:45:04;56.70;;;33.70;;
35602;SDS011;21725;50.836;4.368;2022-12-16T21:51:45;43.60;;;26.63;;
35602;SDS011;21725;50.836;4.368;2022-12-16T21:55:05;66.70;;;37.08;;
35602;SDS011;21725;50.836;4.368;2022-12-16T21:58:25;64.20;;;39.38;;
35602;SDS011;21725;50.836;4.368;2022-12-16T22:01:44;78.68;;;41.70;;
35602;SDS011;21725;50.836;4.368;2022-12-16T22:05:18;66.32;;;37.15;;
35602;SDS011;21725;50.836;4.368;2022-12-16T22:08:37;58.17;;;36.65;;
35602;SDS011;21725;50.836;4.368;2022-12-16T22:11:57;56.70;;;34.30;;
35602;SDS011;21725;50.836;4.368;2022-12-16T22:15:16;50.13;;;30.08;;
35602;SDS011;21725;50.836;4.368;2022-12-16T22:18:35;48.53;;;29.08;;
35602;SDS011;21725;50.836;4.368;2022-12-16T22:21:57;43.47;;;26.63;;
35602;SDS011;21725;50.836;4.368;2022-12-16T22:25:16;45.58;;;29.95;;
35602;SDS011;21725;50.836;4.368;2022-12-16T22:28:38;47.17;;;31.38;;
35602;SDS011;21725;50.836;4.368;2022-12-16T22:31:57;53.50;;;30.92;;
35602;SDS011;21725;50.836;4.368;2022-12-16T22:35:25;50.80;;;32.70;;
35602;SDS011;21725;50.836;4.368;2022-12-16T22:38:47;49.15;;;32.50;;
35602;SDS011;21725;50.836;4.368;2022-12-16T22:42:06;52.75;;;33.63;;
35602;SDS011;21725;50.836;4.368;2022-12-16T22:48:47;43.17;;;25.35;;
35602;SDS011;21725;50.836;4.368;2022-12-16T22:52:06;57.00;;;33.95;;
35602;SDS011;21725;50.836;4.368;2022-12-16T22:55:28;53.25;;;33.47;;
35602;SDS011;21725;50.836;4.368;2022-12-16T22:58:47;58.08;;;34.58;;
35602;SDS011;21725;50.836;4.368;2022-12-16T23:02:26;58.00;;;34.28;;
35602;SDS011;21725;50.836;4.368;2022-12-16T23:05:45;48.33;;;25.65;;
35602;SDS011;21725;50.836;4.368;2022-12-16T23:12:24;53.97;;;31.33;;
35602;SDS011;21725;50.836;4.368;2022-12-16T23:15:43;47.35;;;29.08;;
35602;SDS011;21725;50.836;4.368;2022-12-16T23:19:02;49.10;;;30.58;;
35602;SDS011;21725;50.836;4.368;2022-12-16T23:22:21;36.30;;;22.25;;
35602;SDS011;21725;50.836;4.368;2022-12-16T23:25:40;59.03;;;33.25;;
35602;SDS011;21725;50.836;4.368;2022-12-16T23:29:00;41.55;;;27.52;;
35602;SDS011;21725;50.836;4.368;2022-12-16T23:32:19;56.67;;;36.90;;
35602;SDS011;21725;50.836;4.368;2022-12-16T23:35:38;60.55;;;37.47;;
35602;SDS011;21725;50.836;4.368;2022-12-16T23:38:57;56.05;;;34.28;;
35602;SDS011;21725;50.836;4.368;2022-12-16T23:42:16;63.90;;;37.72;;
35602;SDS011;21725;50.836;4.368;2022-12-16T23:45:55;58.90;;;36.67;;
35602;SDS011;21725;50.836;4.368;2022-12-16T23:49:14;49.30;;;29.15;;
35602;SDS011;21725;50.836;4.368;2022-12-16T23:52:33;40.58;;;27.33;;
35602;SDS011;21725;50.836;4.368;2022-12-16T23:55:56;52.50;;;31.48;;
35602;SDS011;21725;50.836;4.368;2022-12-16T23:59:16;53.17;;;33.75;;
